Time;durP1;ratioP1;P1;durP2;ratioP2;P2;SDS_P1;SDS_P2;PMS_P1;PMS_P2;Temp;Humidity;BMP_temperature;BMP_pressure;BME280_temperature;BME280_humidity;BME280_pressure;Samples;Min_cycle;Max_cycle;Signal;HPM_P1;HPM_P2
2023/01/30 00:01:27;;;;;;;29.52;3.22;;;;;;;22.26;56.54;99471.50;7306433;19;129545;-40
2023/01/30 00:03:53;;;;;;;30.15;3.13;;;;;;;22.16;55.64;99444.56;7312738;19;129499;-39
2023/01/30 00:06:19;;;;;;;43.77;5.00;;;;;;;22.28;55.88;99461.72;7310156;19;129342;-38
2023/01/30 00:08:45;;;;;;;28.13;3.03;;;;;;;22.32;55.82;99463.06;7312611;19;129314;-38
2023/01/30 00:11:13;;;;;;;32.13;3.50;;;;;;;22.27;56.83;99450.41;7313137;19;129965;-37
2023/01/30 00:13:39;;;;;;;29.45;3.47;;;;;;;22.24;53.99;99455.09;7312102;19;129262;-35
2023/01/30 00:16:05;;;;;;;29.33;3.27;;;;;;;22.10;54.12;99450.38;7310078;19;129263;-38
2023/01/30 00:18:30;;;;;;;32.58;3.58;;;;;;;22.08;53.44;99444.47;7308863;19;130294;-36
2023/01/30 00:20:57;;;;;;;30.95;3.38;;;;;;;22.13;53.75;99442.22;7309254;19;130495;-34
2023/01/30 00:23:24;;;;;;;40.03;3.53;;;;;;;22.24;53.42;99436.78;7312621;19;129777;-38
2023/01/30 00:25:49;;;;;;;;;;;;;;;22.18;53.00;99414.63;7309370;19;129307;-39
2023/01/30 00:28:15;;;;;;;20.27;2.43;;;;;;;22.43;52.66;99449.78;7309899;19;129564;-35
2023/01/30 00:30:40;;;;;;;32.60;3.70;;;;;;;22.56;51.88;99424.06;7311280;19;129589;-40
2023/01/30 00:33:05;;;;;;;72.22;7.50;;;;;;;22.68;52.25;99418.41;7311648;19;130033;-37
2023/01/30 00:35:31;;;;;;;67.03;7.53;;;;;;;22.80;51.49;99426.88;7308511;19;129054;-40
2023/01/30 00:37:57;;;;;;;19.25;2.25;;;;;;;22.86;51.82;99416.59;7312800;19;129565;-41
2023/01/30 00:40:24;;;;;;;32.60;3.40;;;;;;;22.92;51.72;99415.97;7310583;19;129560;-40
2023/01/30 00:48:22;;;;;;;25.35;2.85;;;;;;;22.82;51.63;99372.50;7312913;19;129156;-38
2023/01/30 00:50:48;;;;;;;25.57;2.73;;;;;;;22.79;51.86;99360.50;7310216;19;130779;-38
2023/01/30 00:53:15;;;;;;;25.85;3.03;;;;;;;22.73;51.65;99368.16;7312956;19;129699;-37
2023/01/30 00:55:42;;;;;;;27.70;3.20;;;;;;;22.59;51.78;99345.13;7308267;19;130709;-38
2023/01/30 00:58:08;;;;;;;26.05;2.80;;;;;;;22.61;52.56;99369.41;7311745;19;129110;-37
2023/01/30 01:00:33;;;;;;;32.50;3.60;;;;;;;22.56;52.19;99374.28;7309963;19;129422;-38
2023/01/30 01:02:59;;;;;;;26.23;2.53;;;;;;;22.38;53.01;99373.44;7313165;19;129254;-40
2023/01/30 01:05:25;;;;;;;68.90;7.65;;;;;;;22.41;52.99;99375.75;7307511;19;130258;-38
2023/01/30 01:07:50;;;;;;;21.80;2.60;;;;;;;22.36;52.87;99380.59;7311016;19;128904;-38
2023/01/30 01:10:16;;;;;;;33.70;3.53;;;;;;;22.30;53.24;99387.25;7310074;19;129838;-39
2023/01/30 01:12:43;;;;;;;45.05;4.72;;;;;;;22.25;53.34;99380.81;7310219;19;129600;-36
2023/01/30 01:15:10;;;;;;;27.20;2.83;;;;;;;22.19;53.69;99363.06;7309173;19;131735;-36
2023/01/30 01:17:36;;;;;;;33.42;3.63;;;;;;;22.13;53.94;99355.81;7306107;19;130393;-41
2023/01/30 01:20:02;;;;;;;21.10;2.23;;;;;;;22.09;53.71;99355.31;7312597;19;130148;-39
2023/01/30 01:22:27;;;;;;;32.83;3.17;;;;;;;22.04;53.64;99343.63;7308819;19;129999;-39
2023/01/30 01:24:53;;;;;;;32.58;3.63;;;;;;;21.98;54.33;99340.63;7310914;19;130139;-38
2023/01/30 01:27:18;;;;;;;29.43;3.70;;;;;;;21.96;54.33;99316.38;7306979;19;129245;-40
2023/01/30 01:29:44;;;;;;;25.10;2.65;;;;;;;21.92;54.07;99309.81;7309373;19;131030;-39
2023/01/30 01:32:09;;;;;;;39.65;3.70;;;;;;;21.95;55.40;99299.03;7308120;19;130025;-37
2023/01/30 01:34:35;;;;;;;32.10;3.63;;;;;;;22.00;55.24;99290.72;7310953;19;129055;-40
2023/01/30 01:37:00;;;;;;;21.75;2.47;;;;;;;22.03;56.23;99279.16;7307399;19;129306;-37
2023/01/30 01:41:00;;;;;;;21.23;2.30;;;;;;;22.06;56.44;99286.69;7311134;19;129582;-39
2023/01/30 01:42:10;;;;;;;36.15;3.85;;;;;;;22.12;56.00;99279.06;7308172;19;131396;-40
2023/01/30 01:45:15;;;;;;;46.83;4.70;;;;;;;22.13;57.60;99274.66;7309186;19;128990;-38
2023/01/30 01:48:04;;;;;;;45.90;4.53;;;;;;;22.05;54.20;99271.97;7306928;19;129277;-39
2023/01/30 01:50:29;;;;;;;26.67;2.88;;;;;;;21.95;53.85;99262.41;7308848;19;129638;-40
2023/01/30 01:52:58;;;;;;;36.90;3.43;;;;;;;22.07;54.23;99260.38;7307275;19;132693;-39
2023/01/30 01:55:24;;;;;;;46.92;5.30;;;;;;;22.12;53.82;99241.59;7308860;19;128895;-40
2023/01/30 01:57:57;;;;;;;34.80;3.57;;;;;;;22.24;53.23;99240.38;7305486;19;130750;-37
2023/01/30 02:00:22;;;;;;;23.65;2.30;;;;;;;22.38;53.05;99227.53;7310854;19;130430;-38
2023/01/30 02:02:56;;;;;;;64.80;5.93;;;;;;;22.50;52.98;99204.53;7305392;19;129221;-38
2023/01/30 02:05:24;;;;;;;22.38;2.33;;;;;;;22.51;52.36;99170.31;7307129;19;130347;-39
2023/01/30 02:08:19;;;;;;;37.95;4.18;;;;;;;22.71;51.78;99178.84;7307880;19;129232;-39
2023/01/30 02:10:57;;;;;;;31.55;3.25;;;;;;;22.81;51.82;99166.41;7307762;19;130411;-41
2023/01/30 02:13:24;;;;;;;32.60;3.22;;;;;;;22.83;51.71;99175.75;7303030;19;129733;-38
2023/01/30 02:15:50;;;;;;;17.48;2.15;;;;;;;22.68;51.73;99151.13;7306500;19;130151;-39
2023/01/30 02:18:17;;;;;;;34.05;3.17;;;;;;;22.74;52.46;99160.97;7310284;19;131076;-40
2023/01/30 02:20:45;;;;;;;;;;;;;;;22.66;52.12;99175.84;7308594;19;130027;-40
2023/01/30 02:23:25;;;;;;;21.70;2.38;;;;;;;22.63;52.68;99176.97;7311931;19;129699;-39
2023/01/30 02:26:28;;;;;;;33.20;3.72;;;;;;;22.58;52.48;99170.56;7300519;19;130926;-38
2023/01/30 02:29:22;;;;;;;38.75;3.92;;;;;;;22.51;52.74;99143.31;7308268;19;129723;-39
2023/01/30 02:32:00;;;;;;;30.17;3.38;;;;;;;22.44;53.09;99148.38;7310925;19;129319;-38
2023/01/30 02:34:44;;;;;;;22.98;2.33;;;;;;;22.34;53.46;99157.31;7310331;19;129894;-39
2023/01/30 02:37:47;;;;;;;32.47;3.50;;;;;;;22.27;52.95;99148.41;7305111;19;129492;-40
2023/01/30 02:40:18;;;;;;;32.90;3.42;;;;;;;22.19;54.00;99161.47;7309558;19;129150;-36
2023/01/30 02:42:51;;;;;;;27.58;2.85;;;;;;;22.15;53.85;99178.47;7306723;19;129976;-37
2023/01/30 02:45:31;;;;;;;32.38;3.47;;;;;;;22.08;54.11;99193.94;7305318;19;130108;-37
2023/01/30 02:48:02;;;;;;;27.95;2.95;;;;;;;22.02;53.90;99178.84;7309368;19;129574;-39
2023/01/30 02:50:30;;;;;;;23.58;2.40;;;;;;;21.98;54.28;99163.59;7308169;19;129857;-40
2023/01/30 02:52:56;;;;;;;38.58;3.85;;;;;;;21.93;54.73;99149.16;7309166;19;129772;-36
2023/01/30 02:55:25;;;;;;;71.40;7.13;;;;;;;21.89;54.75;99140.00;7305703;19;129303;-39
2023/01/30 02:57:51;;;;;;;25.63;2.58;;;;;;;21.85;54.26;99133.41;7308430;19;129359;-39
2023/01/30 03:00:28;;;;;;;40.10;3.70;;;;;;;21.88;56.07;99124.44;7309352;19;128873;-40
2023/01/30 03:03:09;;;;;;;39.88;3.50;;;;;;;21.93;55.96;99120.38;7308360;19;130006;-38
2023/01/30 03:05:50;;;;;;;49.35;5.10;;;;;;;21.97;56.19;99105.19;7307084;19;131940;-38
2023/01/30 03:08:45;;;;;;;27.25;2.83;;;;;;;21.94;54.29;99111.56;7308766;19;129415;-40
2023/01/30 03:11:11;;;;;;;33.97;3.47;;;;;;;21.82;54.79;99084.00;7306691;19;129366;-40
2023/01/30 03:14:13;;;;;;;24.43;3.10;;;;;;;21.90;54.24;99086.66;7309523;19;130402;-39
2023/01/30 03:16:40;;;;;;;22.35;2.47;;;;;;;22.11;54.19;99106.44;7304519;19;129288;-38
2023/01/30 03:19:10;;;;;;;24.17;2.70;;;;;;;22.23;53.71;99086.88;7308167;19;128873;-40
2023/01/30 03:21:43;;;;;;;21.60;2.75;;;;;;;22.23;53.20;99065.94;7308542;19;129208;-39
2023/01/30 03:24:09;;;;;;;36.17;3.85;;;;;;;22.45;52.59;99067.97;7307541;19;129849;-38
2023/01/30 03:26:39;;;;;;;37.75;3.70;;;;;;;22.60;52.11;99058.56;7303963;19;130400;-39
2023/01/30 03:29:05;;;;;;;26.50;2.83;;;;;;;22.66;52.36;99039.59;7307962;19;129159;-39
2023/01/30 03:31:30;;;;;;;35.90;3.67;;;;;;;22.74;52.23;99040.41;7307566;19;129772;-40
2023/01/30 03:33:56;;;;;;;15.95;1.85;;;;;;;22.67;52.15;99017.66;7308055;19;130254;-36
2023/01/30 03:36:21;;;;;;;12.40;1.47;;;;;;;22.72;52.49;99036.31;7303338;19;129119;-38
2023/01/30 03:38:46;;;;;;;36.03;3.58;;;;;;;22.73;52.12;99024.84;7312389;19;129627;-38
2023/01/30 03:41:12;;;;;;;27.20;3.05;;;;;;;22.66;52.62;99021.25;7315508;19;129495;-39
2023/01/30 03:43:37;;;;;;;32.53;3.63;;;;;;;22.65;52.36;99014.38;7309252;19;129561;-40
2023/01/30 03:46:02;;;;;;;32.00;3.10;;;;;;;22.59;52.20;98991.44;7311089;19;129575;-37
2023/01/30 03:48:28;;;;;;;20.10;2.08;;;;;;;22.54;52.73;99006.81;7313030;19;129360;-40
2023/01/30 03:50:53;;;;;;;29.30;2.58;;;;;;;22.48;53.13;99010.00;7313103;19;130271;-38
2023/01/30 03:53:18;;;;;;;33.10;3.70;;;;;;;22.42;53.16;99008.03;7310146;19;129931;-39
2023/01/30 03:55:44;;;;;;;40.97;3.73;;;;;;;22.34;53.27;99021.13;7310497;19;129693;-38
2023/01/30 03:58:10;;;;;;;29.77;3.05;;;;;;;22.26;53.56;99016.69;7311715;19;129094;-37
2023/01/30 04:00:35;;;;;;;29.67;3.23;;;;;;;22.20;53.73;99029.56;7313914;19;129537;-40
2023/01/30 04:03:01;;;;;;;24.10;2.47;;;;;;;22.10;54.18;99028.88;7313836;19;129823;-37
2023/01/30 04:05:26;;;;;;;106.27;11.00;;;;;;;22.09;54.40;99027.22;7309281;19;129211;-40
2023/01/30 04:07:56;;;;;;;31.97;3.07;;;;;;;21.93;53.90;99013.06;7311545;19;129475;-35
2023/01/30 04:10:21;;;;;;;38.58;3.78;;;;;;;21.98;54.23;99019.66;7312616;19;129540;-39
2023/01/30 04:12:47;;;;;;;31.47;3.17;;;;;;;21.90;54.21;99010.78;7311944;19;129249;-39
2023/01/30 04:15:12;;;;;;;37.47;3.90;;;;;;;21.88;55.05;99004.06;7311784;19;130136;-38
2023/01/30 04:17:38;;;;;;;30.17;3.13;;;;;;;21.83;54.94;98994.03;7312404;19;129990;-40
2023/01/30 04:20:04;;;;;;;23.33;2.28;;;;;;;21.71;55.10;98987.44;7314108;19;130633;-38
2023/01/30 04:22:29;;;;;;;52.22;5.00;;;;;;;21.82;56.05;98981.94;7311953;19;130406;-39
2023/01/30 04:24:55;;;;;;;18.37;2.10;;;;;;;21.84;54.67;98976.56;7313483;19;129858;-37
2023/01/30 04:27:20;;;;;;;34.60;3.63;;;;;;;21.83;54.38;98967.06;7310049;19;129897;-40
2023/01/30 04:29:45;;;;;;;22.10;2.30;;;;;;;21.93;54.83;98971.19;7312635;19;129178;-41
2023/01/30 04:32:11;;;;;;;36.15;3.53;;;;;;;22.05;54.30;98979.59;7311924;19;129488;-37
2023/01/30 04:34:36;;;;;;;23.02;2.97;;;;;;;22.22;53.51;98975.25;7310172;19;131434;-38
2023/01/30 04:37:01;;;;;;;48.70;5.10;;;;;;;22.67;52.67;98963.44;7309187;19;129789;-38
2023/01/30 04:39:27;;;;;;;24.30;2.53;;;;;;;23.15;51.45;98965.28;7310582;19;129959;-40
2023/01/30 04:41:52;;;;;;;26.63;2.45;;;;;;;23.52;50.17;98952.44;7314311;19;129291;-36
2023/01/30 04:44:17;;;;;;;21.70;2.07;;;;;;;23.84;49.41;98965.50;7311943;19;130111;-38
2023/01/30 04:46:43;;;;;;;36.60;3.30;;;;;;;24.07;49.10;98937.53;7309321;19;129271;-38
2023/01/30 04:49:09;;;;;;;36.50;3.60;;;;;;;24.26;48.77;98920.53;7311531;19;130619;-41
2023/01/30 04:51:35;;;;;;;40.90;4.05;;;;;;;24.33;48.52;98924.91;7310248;19;129632;-38
2023/01/30 04:54:00;;;;;;;10.07;1.33;;;;;;;24.34;48.59;98913.44;7312981;19;129219;-36
2023/01/30 04:56:26;;;;;;;18.67;1.83;;;;;;;24.39;48.09;98905.81;7309266;19;130252;-39
2023/01/30 04:58:51;;;;;;;29.25;2.75;;;;;;;24.33;48.37;98889.94;7311311;19;129061;-37
2023/01/30 05:01:28;;;;;;;37.00;3.57;;;;;;;24.48;47.97;98902.16;7313610;19;129678;-41
2023/01/30 05:03:53;;;;;;;21.10;2.15;;;;;;;24.48;48.35;98899.53;7310690;19;130375;-38
2023/01/30 05:06:20;;;;;;;46.40;4.75;;;;;;;24.49;48.19;98884.59;7306606;19;130389;-39
2023/01/30 05:08:49;;;;;;;23.73;2.35;;;;;;;24.48;47.91;98861.13;7309517;19;129796;-38
2023/01/30 05:11:15;;;;;;;35.60;3.42;;;;;;;24.46;48.30;98864.72;7309906;19;129795;-35
2023/01/30 05:13:42;;;;;;;39.47;4.10;;;;;;;24.49;47.71;98864.34;7310316;19;129427;-37
2023/01/30 05:16:07;;;;;;;13.05;1.40;;;;;;;24.56;48.24;98848.69;7307342;19;129382;-37
2023/01/30 05:18:32;;;;;;;33.30;3.03;;;;;;;24.55;47.75;98838.38;7311251;19;131195;-37
2023/01/30 05:21:06;;;;;;;23.40;2.33;;;;;;;24.61;48.32;98840.31;7307226;19;131205;-38
2023/01/30 05:23:31;;;;;;;34.85;3.60;;;;;;;24.58;48.10;98824.91;7310709;19;131539;-38
2023/01/30 05:25:57;;;;;;;26.17;2.67;;;;;;;24.59;47.88;98822.09;7308117;19;129262;-39
2023/01/30 05:28:22;;;;;;;23.63;2.47;;;;;;;24.53;48.43;98830.66;7308299;19;129721;-37
2023/01/30 05:30:47;;;;;;;39.15;3.47;;;;;;;24.59;47.68;98824.72;7309623;19;131281;-40
2023/01/30 05:33:13;;;;;;;41.20;4.33;;;;;;;24.70;47.83;98820.84;7310094;19;130398;-40
2023/01/30 05:35:38;;;;;;;39.40;4.03;;;;;;;24.74;47.32;98801.13;7307646;19;129701;-38
2023/01/30 05:38:03;;;;;;;31.98;3.33;;;;;;;24.71;47.85;98817.25;7309545;19;129826;-36
2023/01/30 05:40:29;;;;;;;36.03;3.47;;;;;;;24.73;47.44;98821.31;7309793;19;129035;-37
2023/01/30 05:42:54;;;;;;;29.45;2.88;;;;;;;24.71;47.69;98807.53;7310611;19;130197;-40
2023/01/30 05:45:19;;;;;;;47.10;5.20;;;;;;;24.74;47.79;98806.38;7304736;19;129675;-38
2023/01/30 05:47:50;;;;;;;54.30;5.07;;;;;;;24.80;47.32;98795.97;7309058;19;128891;-36
2023/01/30 05:50:16;;;;;;;27.05;2.63;;;;;;;24.76;47.65;98791.25;7306358;19;131132;-39
2023/01/30 05:52:41;;;;;;;30.27;3.13;;;;;;;24.64;47.71;98792.63;7310333;19;129205;-35
2023/01/30 05:55:07;;;;;;;26.63;2.58;;;;;;;24.53;48.00;98790.44;7306112;19;130528;-39
2023/01/30 05:57:32;;;;;;;51.53;4.57;;;;;;;24.37;48.50;98800.09;7307029;19;129606;-37
2023/01/30 05:59:57;;;;;;;44.47;4.30;;;;;;;24.14;48.91;98759.06;7308710;19;130382;-37
2023/01/30 06:02:23;;;;;;;25.10;2.42;;;;;;;24.21;49.00;98788.91;7308647;19;130151;-40
2023/01/30 06:04:48;;;;;;;33.17;3.23;;;;;;;24.14;49.13;98767.78;7307770;19;129759;-38
2023/01/30 06:07:13;;;;;;;40.83;3.70;;;;;;;24.23;49.22;98779.84;7305080;19;129684;-36
2023/01/30 06:09:39;;;;;;;36.23;3.67;;;;;;;24.22;48.25;98766.88;7309711;19;129225;-38
2023/01/30 06:12:06;;;;;;;58.47;5.80;;;;;;;24.44;47.95;98793.13;7309292;19;130096;-37
2023/01/30 06:14:31;;;;;;;;;;;;;;;24.40;48.26;98777.91;7308859;19;129252;-38
2023/01/30 06:16:56;;;;;;;37.97;3.63;;;;;;;24.46;48.20;98785.88;7305482;19;130112;-39
2023/01/30 06:19:22;;;;;;;26.87;2.53;;;;;;;24.44;47.66;98782.59;7308181;19;130262;-35
2023/01/30 06:21:47;;;;;;;23.33;2.57;;;;;;;24.48;48.19;98777.03;7309509;19;129144;-38
2023/01/30 06:24:12;;;;;;;36.75;3.83;;;;;;;24.54;47.75;98776.31;7309699;19;129725;-38
2023/01/30 06:26:38;;;;;;;47.88;4.63;;;;;;;24.55;47.55;98777.91;7300899;19;130518;-38
2023/01/30 06:29:03;;;;;;;14.57;1.60;;;;;;;24.56;47.57;98785.63;7309176;19;129013;-37
2023/01/30 06:31:28;;;;;;;39.80;4.03;;;;;;;24.58;47.52;98773.13;7302151;19;130012;-38
2023/01/30 06:33:54;;;;;;;29.87;2.93;;;;;;;24.61;47.83;98771.97;7308094;19;129289;-40
2023/01/30 06:36:19;;;;;;;37.27;3.50;;;;;;;24.60;47.70;98765.06;7305665;19;130983;-39
2023/01/30 06:38:44;;;;;;;25.13;2.60;;;;;;;24.56;48.38;98771.69;7309949;19;131010;-41
2023/01/30 06:41:10;;;;;;;21.27;2.20;;;;;;;24.48;48.63;98765.50;7304552;19;131456;-40
2023/01/30 06:43:35;;;;;;;44.97;4.80;;;;;;;24.38;48.89;98764.94;7307483;19;130249;-41
2023/01/30 06:46:00;;;;;;;27.13;2.65;;;;;;;24.31;48.87;98777.13;7306318;19;130037;-37
2023/01/30 06:48:26;;;;;;;16.87;1.80;;;;;;;24.26;49.07;98763.72;7302238;19;129752;-39
2023/01/30 06:50:51;;;;;;;28.80;3.10;;;;;;;24.26;48.98;98762.91;7298284;19;130173;-40
2023/01/30 06:53:18;;;;;;;71.87;6.47;;;;;;;24.27;48.92;98768.00;7299457;19;130159;-40
2023/01/30 06:55:43;;;;;;;39.22;3.88;;;;;;;24.18;49.02;98761.16;7305829;19;129533;-39
2023/01/30 06:58:11;;;;;;;63.27;7.03;;;;;;;24.33;49.01;98780.41;7295615;19;130635;-36
2023/01/30 07:00:39;;;;;;;111.30;11.25;;;;;;;24.36;49.07;98774.00;7287926;19;132561;-40
2023/01/30 07:03:10;;;;;;;37.85;3.55;;;;;;;24.39;48.97;98781.53;7297716;19;129800;-40
2023/01/30 07:05:41;;;;;;;31.67;3.20;;;;;;;24.40;49.22;98781.34;7299477;19;129503;-35
2023/01/30 07:08:07;;;;;;;29.83;2.83;;;;;;;24.42;48.91;98774.09;7307825;19;129302;-38
2023/01/30 07:10:34;;;;;;;7.63;0.97;;;;;;;24.48;48.90;98766.50;7304405;19;131077;-38
2023/01/30 07:12:59;;;;;;;35.53;3.58;;;;;;;24.48;48.42;98761.25;7302497;19;130068;-37
2023/01/30 07:15:25;;;;;;;89.03;9.20;;;;;;;24.54;48.18;98756.09;7294817;19;130075;-38
2023/01/30 07:17:50;;;;;;;26.90;2.63;;;;;;;24.50;48.29;98760.06;7301438;19;129489;-37
2023/01/30 07:20:16;;;;;;;107.00;10.63;;;;;;;24.59;48.42;98758.19;7302782;19;129572;-36
2023/01/30 07:22:41;;;;;;;33.42;3.30;;;;;;;24.62;48.62;98747.31;7305883;19;129601;-37
2023/01/30 07:25:07;;;;;;;44.57;4.17;;;;;;;24.62;48.30;98742.06;7305059;19;128905;-33
2023/01/30 07:27:32;;;;;;;27.77;2.87;;;;;;;24.70;48.15;98749.88;7300371;19;130575;-37
2023/01/30 07:29:58;;;;;;;31.63;3.50;;;;;;;24.60;48.48;98747.50;7306838;19;129209;-39
2023/01/30 07:32:23;;;;;;;81.73;7.83;;;;;;;24.58;48.28;98741.59;7300601;19;129340;-37
2023/01/30 07:34:49;;;;;;;32.07;2.80;;;;;;;24.41;49.23;98743.56;7305113;19;129561;-36
2023/01/30 07:37:14;;;;;;;67.88;6.57;;;;;;;24.37;48.99;98744.09;7302393;19;130520;-38
2023/01/30 07:39:40;;;;;;;38.17;3.70;;;;;;;24.36;48.79;98756.41;7297665;19;129744;-39
2023/01/30 07:42:05;;;;;;;45.80;4.13;;;;;;;24.25;48.95;98740.25;7306487;19;129135;-38
2023/01/30 07:44:32;;;;;;;49.20;4.97;;;;;;;24.33;49.17;98748.06;7302852;19;130762;-40
2023/01/30 07:46:58;;;;;;;18.63;1.83;;;;;;;24.40;48.96;98751.63;7301750;19;129640;-38
2023/01/30 07:49:23;;;;;;;42.50;3.93;;;;;;;24.41;49.37;98751.44;7305632;19;130489;-38
2023/01/30 07:51:49;;;;;;;49.63;4.50;;;;;;;24.48;48.64;98750.75;7293994;19;130301;-37
2023/01/30 07:54:15;;;;;;;34.30;3.70;;;;;;;24.49;48.81;98747.94;7306987;19;129505;-37
2023/01/30 07:56:40;;;;;;;36.45;3.38;;;;;;;24.53;48.93;98740.50;7294854;19;129801;-40
2023/01/30 07:59:06;;;;;;;92.03;9.10;;;;;;;24.62;48.32;98742.88;7297424;19;130463;-38
2023/01/30 08:01:31;;;;;;;137.80;13.10;;;;;;;24.61;48.37;98740.44;7299782;19;131166;-36
2023/01/30 08:03:57;;;;;;;26.05;2.58;;;;;;;24.61;48.23;98745.69;7301332;19;129173;-38
2023/01/30 08:06:23;;;;;;;40.87;3.57;;;;;;;24.61;48.86;98745.69;7301615;19;129693;-41
2023/01/30 08:08:48;;;;;;;27.03;2.77;;;;;;;24.73;48.57;98739.00;7294592;19;131041;-38
2023/01/30 08:11:13;;;;;;;34.80;3.33;;;;;;;24.74;48.32;98745.91;7303638;19;129295;-39
2023/01/30 08:13:39;;;;;;;38.23;4.07;;;;;;;24.75;48.27;98739.66;7296805;19;130853;-38
2023/01/30 08:16:06;;;;;;;26.37;2.87;;;;;;;24.74;47.87;98724.88;7300955;19;130605;-34
2023/01/30 08:18:33;;;;;;;47.75;4.28;;;;;;;24.71;48.32;98726.03;7297047;19;131205;-40
2023/01/30 08:20:58;;;;;;;;;;;;;;;24.62;48.57;98731.53;7304479;19;129557;-36
2023/01/30 08:23:24;;;;;;;28.30;2.70;;;;;;;24.53;48.69;98740.50;7300536;19;129513;-38
2023/01/30 08:25:53;;;;;;;69.43;6.67;;;;;;;24.46;49.38;98737.78;7286901;19;130612;-39
2023/01/30 08:28:18;;;;;;;53.58;4.88;;;;;;;24.36;48.90;98740.66;7298679;19;131764;-41
2023/01/30 08:30:43;;;;;;;44.23;3.93;;;;;;;24.38;49.28;98746.53;7303356;19;129354;-40
2023/01/30 08:33:09;;;;;;;23.53;2.23;;;;;;;24.41;49.31;98730.41;7311378;19;129578;-38
2023/01/30 08:35:34;;;;;;;43.20;4.30;;;;;;;24.48;49.04;98723.47;7296071;19;131525;-37
2023/01/30 08:37:59;;;;;;;34.20;3.13;;;;;;;24.49;49.37;98743.47;7306740;19;131141;-38
2023/01/30 08:40:25;;;;;;;30.70;2.73;;;;;;;24.58;49.05;98719.78;7313013;19;129547;-39
2023/01/30 08:42:50;;;;;;;58.72;5.07;;;;;;;24.56;47.35;98722.56;7310535;19;129366;-36
2023/01/30 08:45:15;;;;;;;33.10;3.10;;;;;;;24.67;46.62;98718.66;7302883;19;129983;-37
2023/01/30 08:47:41;;;;;;;42.72;4.20;;;;;;;24.74;46.79;98724.88;7307637;19;129934;-38
2023/01/30 08:50:07;;;;;;;56.77;5.13;;;;;;;24.53;47.80;98691.38;7308350;19;129532;-39
2023/01/30 08:52:32;;;;;;;34.83;3.57;;;;;;;24.55;47.50;98717.47;7309306;19;129313;-38
2023/01/30 08:54:58;;;;;;;30.07;3.00;;;;;;;24.42;48.00;98716.31;7309710;19;130604;-37
2023/01/30 08:57:23;;;;;;;45.97;4.87;;;;;;;24.34;48.92;98708.50;7308614;19;131119;-36
2023/01/30 08:59:50;;;;;;;37.97;3.37;;;;;;;24.12;48.67;98688.34;7311706;19;129029;-37
2023/01/30 09:02:15;;;;;;;;;;;;;;;24.14;48.92;98707.38;7308283;19;129838;-38
2023/01/30 09:04:40;;;;;;;44.55;4.47;;;;;;;24.05;49.48;98728.59;7308558;19;129637;-39
2023/01/30 09:07:06;;;;;;;56.43;4.93;;;;;;;23.92;49.97;98713.41;7308332;19;131517;-38
2023/01/30 09:09:31;;;;;;;47.77;4.33;;;;;;;23.80;50.41;98704.31;7308341;19;129638;-36
2023/01/30 09:11:57;;;;;;;29.20;2.63;;;;;;;23.69;50.55;98717.84;7305458;19;129401;-36
2023/01/30 09:14:22;;;;;;;30.10;2.83;;;;;;;23.58;50.47;98713.00;7310038;19;129725;-40
2023/01/30 09:16:54;;;;;;;35.57;3.10;;;;;;;23.49;51.21;98716.66;7307409;19;129250;-38
2023/01/30 09:19:26;;;;;;;24.63;2.53;;;;;;;23.38;50.95;98724.09;7308649;19;129555;-41
2023/01/30 09:21:53;;;;;;;35.10;3.53;;;;;;;23.26;52.03;98707.91;7310827;19;129606;-41
2023/01/30 09:24:18;;;;;;;28.73;2.83;;;;;;;23.20;51.70;98737.44;7310371;19;130274;-36
2023/01/30 09:26:44;;;;;;;49.00;4.53;;;;;;;23.12;51.94;98732.25;7306147;19;129281;-39
2023/01/30 09:29:13;;;;;;;29.90;3.27;;;;;;;23.04;52.30;98727.00;7309528;19;129420;-38
2023/01/30 09:31:40;;;;;;;40.08;3.78;;;;;;;22.94;52.67;98735.06;7304556;19;129872;-39
2023/01/30 09:34:06;;;;;;;27.73;2.97;;;;;;;22.89;52.57;98733.97;7310999;19;129528;-36
2023/01/30 09:36:32;;;;;;;39.42;3.88;;;;;;;22.72;53.06;98706.97;7305375;19;129813;-35
2023/01/30 09:38:57;;;;;;;28.87;2.53;;;;;;;22.76;53.32;98733.63;7310702;19;130135;-40
2023/01/30 09:41:41;;;;;;;22.37;2.47;;;;;;;22.69;52.95;98732.69;7310262;19;129099;-39
2023/01/30 09:44:31;;;;;;;28.52;3.33;;;;;;;22.62;53.21;98718.63;7310135;19;130560;-38
2023/01/30 09:47:15;;;;;;;28.75;2.53;;;;;;;22.57;53.91;98705.22;7306583;19;129513;-40
2023/01/30 09:49:44;;;;;;;84.32;8.38;;;;;;;22.52;54.17;98704.84;7307546;19;129625;-40
2023/01/30 09:52:28;;;;;;;27.60;2.70;;;;;;;22.48;53.59;98704.38;7306033;19;131019;-40
2023/01/30 09:55:00;;;;;;;26.00;2.25;;;;;;;22.47;54.45;98697.50;7309542;19;130348;-40
2023/01/30 09:57:26;;;;;;;48.42;4.50;;;;;;;22.44;53.82;98697.84;7309399;19;129500;-36
2023/01/30 10:00:10;;;;;;;33.93;3.07;;;;;;;22.48;55.88;98698.31;7309609;19;128984;-38
2023/01/30 10:02:51;;;;;;;31.48;3.00;;;;;;;22.36;55.33;98678.72;7310755;19;129045;-40
2023/01/30 10:05:16;;;;;;;26.00;2.53;;;;;;;22.53;55.15;98690.78;7309262;19;129955;-35
2023/01/30 10:08:08;;;;;;;31.50;3.13;;;;;;;22.57;57.68;98689.50;7308039;19;129270;-39
2023/01/30 10:10:53;;;;;;;39.05;3.85;;;;;;;22.62;57.23;98681.94;7306910;19;129921;-36
2023/01/30 10:13:55;;;;;;;22.95;2.17;;;;;;;22.69;57.61;98677.69;7309438;19;129275;-36
2023/01/30 10:16:45;;;;;;;31.35;3.28;;;;;;;22.70;57.35;98666.19;7305564;19;131669;-39
2023/01/30 10:19:19;;;;;;;19.23;2.05;;;;;;;22.76;56.83;98660.28;7305922;19;130457;-40
2023/01/30 10:21:47;;;;;;;15.32;1.65;;;;;;;22.74;56.79;98646.53;7304306;19;129545;-40
2023/01/30 10:24:31;;;;;;;31.67;2.85;;;;;;;22.87;56.82;98631.09;7309421;19;129241;-41
2023/01/30 10:26:57;;;;;;;37.10;3.47;;;;;;;22.86;55.68;98661.72;7305510;19;129672;-38
2023/01/30 10:29:30;;;;;;;34.60;3.07;;;;;;;22.90;56.17;98664.81;7307145;19;129553;-36
2023/01/30 10:32:09;;;;;;;21.90;1.95;;;;;;;22.85;56.59;98667.13;7309036;19;129085;-36
2023/01/30 10:34:39;;;;;;;39.88;3.90;;;;;;;22.82;56.22;98676.16;7305289;19;129250;-39
2023/01/30 10:37:31;;;;;;;28.50;2.55;;;;;;;22.80;56.35;98675.50;7304964;19;129351;-38
2023/01/30 10:40:02;;;;;;;21.23;2.20;;;;;;;22.76;55.50;98686.47;7308493;19;132002;-39
2023/01/30 10:42:51;;;;;;;11.55;1.38;;;;;;;22.71;56.48;98707.16;7308959;19;130032;-39
2023/01/30 10:45:24;;;;;;;47.03;4.50;;;;;;;22.67;56.32;98697.97;7306654;19;129993;-40
2023/01/30 10:48:20;;;;;;;70.18;6.45;;;;;;;22.62;56.98;98680.16;7301528;19;130355;-38
2023/01/30 10:50:51;;;;;;;36.97;3.20;;;;;;;22.62;56.49;98695.03;7302890;19;130311;-38
2023/01/30 10:53:27;;;;;;;33.97;3.08;;;;;;;22.60;57.01;98691.78;7307059;19;128827;-38
2023/01/30 10:56:02;;;;;;;26.63;2.30;;;;;;;22.57;56.70;98705.22;7305326;19;129268;-38
2023/01/30 10:58:52;;;;;;;36.47;3.45;;;;;;;22.55;56.82;98691.47;7308264;19;129555;-36
2023/01/30 11:01:24;;;;;;;40.40;3.67;;;;;;;22.56;57.05;98690.50;7308667;19;130517;-38
2023/01/30 11:04:00;;;;;;;31.15;3.38;;;;;;;22.55;57.29;98694.06;7308570;19;129615;-39
2023/01/30 11:06:26;;;;;;;39.33;3.25;;;;;;;22.53;56.71;98699.47;7305112;19;129064;-37
2023/01/30 11:08:53;;;;;;;29.60;2.83;;;;;;;22.54;56.50;98676.72;7307065;19;129072;-40
2023/01/30 11:11:45;;;;;;;46.78;3.75;;;;;;;22.41;57.55;98655.47;7306723;19;129488;-38
2023/01/30 11:14:11;;;;;;;36.72;3.30;;;;;;;22.51;56.26;98684.91;7308593;19;129112;-37
2023/01/30 11:16:57;;;;;;;38.50;3.77;;;;;;;22.55;57.40;98697.53;7303701;19;130586;-38
2023/01/30 11:19:31;;;;;;;24.17;2.42;;;;;;;22.50;56.83;98685.88;7308633;19;129240;-38
2023/01/30 11:22:01;;;;;;;19.13;1.85;;;;;;;22.50;56.38;98685.88;7307927;19;130124;-40
2023/01/30 11:24:37;;;;;;;25.05;2.20;;;;;;;22.50;57.35;98681.47;7307147;19;129572;-41
2023/01/30 11:27:24;;;;;;;24.58;2.13;;;;;;;22.51;57.52;98680.47;7305282;19;131266;-36
2023/01/30 11:30:01;;;;;;;;;;;;;;;22.56;57.52;98680.00;7304902;19;130209;-39
2023/01/30 11:32:28;;;;;;;31.45;2.78;;;;;;;22.51;56.23;98685.69;7306219;19;130476;-38
2023/01/30 11:35:05;;;;;;;26.92;2.75;;;;;;;22.51;57.42;98684.91;7306472;19;130046;-40